Weather at Millicent Airfield

Public forecast

Using degrees Celsius for public forecast. Weather courtesy of forecast.io.

Closest aviation weather report (METAR) to Millicent Airfield

Closest report is Casement Air Base, 8.6 nm (15.9 km) ENE.

2024/05/28 17:00 (retrieved 57 minutes ago)

EIME 281700Z 25016KT 9999 FEW025 BKN048 14/10 Q1005

Closest aviation forecast (TAF) to Millicent Airfield

Closest forecast is Dublin Airport, 17.9 nm (33.1 km) ENE.

2024/05/28 12:09 (retrieved 6 hours ago)

TAF EIDW 281100Z 2812/2912 25011KT 9999 SCT018 BKN025 PROB40 TEMPO 2812/2820 -SHRA BKN014 FEW018CB PROB30 TEMPO 2815/2818 4000 SHRA PROB40 TEMPO 2902/2908 BKN012 PROB30 TEMPO 2903/2907 4000 -SHRA BKN009 BECMG 2907/2909 29010KT